Terminal Aerodrome Forecast
Issued by NWS Duluth, MN

Home | Current Version | Previous Version | Text Only | Print | Product List | Glossary On
Versions: 1 2 3 4 5 6 7 8 9 10 11 12 13 14 15 16 17 18 19 20 21 22 23 24 25 26 27 28 29 30 31 32
000
FTUS43 KDLH 221300 AAA
TAFINL
TAF AMD
KINL 221305Z 2213/2312 32009G16KT P6SM BKN009 OVC015
     FM221500 33012G20KT P6SM BKN020
     FM221700 34012G20KT P6SM SCT025
     FM222100 34010KT P6SM FEW040
     FM230100 33004KT P6SM SKC=

USA.gov is the U.S. government's official web portal to all federal, state and local government web resources and services.